createdAt,value
2017-04-27T00:06:32.042Z,7.84
2017-04-27T00:14:27.226Z,7.77
2017-04-27T00:15:16.627Z,7.81
2017-04-27T00:16:04.542Z,7.9
2017-04-27T00:16:54.631Z,7.78
2017-04-27T00:17:50.666Z,7.77
2017-04-27T00:18:42.260Z,7.83
2017-04-27T01:31:34.339Z,7.18
2017-04-27T01:32:22.919Z,7.08
2017-04-27T01:33:12.668Z,7.05
2017-04-27T01:34:01.797Z,7.08
2017-04-27T01:34:50.684Z,7.11
2017-04-27T01:35:42.185Z,7.05
2017-04-27T01:36:30.958Z,7.04
2017-04-27T01:37:21.500Z,7.03
2017-04-27T01:38:12.866Z,7.03
2017-04-27T01:39:02.403Z,7.05
2017-04-27T01:44:52.773Z,7.22
2017-04-27T01:45:41.300Z,7.22
2017-04-27T01:46:29.498Z,7.28
2017-04-27T01:47:18.521Z,7.23
2017-04-27T01:48:07.276Z,7.26
2017-04-27T01:48:55.623Z,7.28
2017-04-27T01:49:44.441Z,7.26
2017-04-27T01:50:33.360Z,7.26
2017-04-27T01:51:21.485Z,7.22
2017-04-27T01:52:10.519Z,7.23
2017-04-27T01:53:00.520Z,7.28
2017-04-27T01:55:28.405Z,7.23
2017-04-27T01:57:57.507Z,7.29
2017-04-27T02:01:39.342Z,7.19
2017-04-27T02:02:30.686Z,7.21
2017-04-27T02:03:21.538Z,7.21
2017-04-27T02:04:10.198Z,7.22
2017-04-27T02:04:59.979Z,7.22
2017-04-27T02:05:49.005Z,7.32
2017-04-27T02:06:38.206Z,7.28
2017-04-27T02:07:26.915Z,7.25
2017-04-27T02:08:15.795Z,7.31
2017-04-27T02:09:04.298Z,7.28
2017-04-27T02:09:52.717Z,7.32
2017-04-27T02:10:41.205Z,7.25
2017-04-27T02:11:30.426Z,7.37
2017-04-27T02:12:18.559Z,7.43
2017-04-27T02:13:07.166Z,7.37
2017-04-27T02:13:55.829Z,7.39
2017-04-27T02:17:21.294Z,7.48
2017-04-27T02:18:10.534Z,7.39
2017-04-27T02:18:58.840Z,7.41
2017-04-27T02:19:48.635Z,7.44
2017-04-27T02:20:37.218Z,7.41
2017-04-27T02:21:27.053Z,7.44
2017-04-27T02:22:15.629Z,7.43
2017-04-27T02:23:04.493Z,7.43
2017-04-27T02:23:53.359Z,7.44
2017-04-27T02:24:42.467Z,7.33
2017-04-27T02:25:32.116Z,7.26
2017-04-27T02:26:20.663Z,7.28
2017-04-27T02:27:09.514Z,7.29
2017-04-27T02:27:58.592Z,7.23
2017-04-27T02:28:47.667Z,7.28
2017-04-27T02:29:36.204Z,7.29
2017-04-27T02:30:25.186Z,7.28
2017-04-27T02:33:10.866Z,7.31
2017-04-27T02:33:59.419Z,7.28
2017-04-27T02:35:55.014Z,7.29
2017-04-27T02:36:47.965Z,7.25
2017-04-27T02:37:43.085Z,7.25
2017-04-27T02:38:39.165Z,7.21
2017-04-27T02:39:35.131Z,7.22
2017-04-27T02:40:30.166Z,7.22
2017-04-27T02:41:23.626Z,7.22
2017-04-27T02:42:17.749Z,7.19
2017-04-27T02:43:09.552Z,7.28
2017-04-27T02:44:04.627Z,7.15
2017-04-27T02:44:58.107Z,7.19
2017-04-27T03:11:17.397Z,7
2017-04-27T03:12:06.492Z,6.95
2017-04-27T03:12:54.660Z,7.03
2017-04-27T03:13:44.942Z,7
2017-04-27T03:15:45.588Z,7.03
2017-04-27T03:16:34.564Z,7.03
2017-04-27T03:17:23.946Z,6.97
2017-04-27T03:18:28.620Z,7.01
2017-04-27T03:19:16.062Z,7.04
2017-04-27T03:20:04.923Z,6.96
2017-04-27T03:20:53.752Z,7
2017-04-27T03:21:41.989Z,7
2017-04-27T03:22:30.683Z,6.95
2017-04-27T03:23:19.750Z,7.01
2017-04-27T03:29:42.090Z,7.04
2017-04-27T03:32:40.800Z,7.14
2017-04-27T03:40:57.109Z,7.04
2017-04-27T03:41:48.857Z,7.01
2017-04-27T03:45:43.848Z,7.01
2017-04-27T03:46:34.202Z,7.03
2017-04-27T03:47:18.347Z,7
2017-04-27T03:48:05.988Z,6.86
2017-04-27T03:48:54.224Z,6.92
2017-04-27T03:50:53.945Z,6.9
2017-04-27T03:53:22.177Z,6.92
2017-04-27T03:54:10.036Z,6.92
2017-04-27T03:54:55.247Z,6.86
2017-04-27T03:55:35.693Z,6.86
2017-04-27T03:56:16.131Z,6.9
2017-04-27T04:08:56.305Z,6.9
2017-04-27T04:09:46.138Z,6.93
2017-04-27T04:20:02.233Z,6.87
2017-04-27T04:24:51.858Z,6.82
2017-04-27T04:25:40.302Z,6.85
2017-04-27T04:26:28.771Z,6.86
2017-04-27T04:27:17.404Z,6.87
2017-04-27T04:28:06.035Z,6.85
2017-04-27T04:28:54.852Z,6.87
2017-04-27T04:29:43.526Z,6.87
2017-04-27T04:30:31.882Z,6.77
2017-04-27T04:31:20.956Z,6.86
2017-04-27T04:32:09.313Z,6.87
2017-04-27T04:32:58.019Z,6.78
2017-04-27T04:34:52.906Z,6.89
2017-04-27T04:35:40.395Z,6.87
2017-04-27T04:36:28.956Z,6.83
2017-04-27T04:37:17.589Z,6.86
2017-04-27T04:38:06.788Z,6.89
2017-04-27T04:38:55.390Z,6.86
2017-04-27T04:39:44.308Z,6.92
2017-04-27T04:40:32.807Z,6.93
2017-04-27T04:41:23.935Z,6.9
2017-04-27T04:42:12.968Z,6.93
2017-04-27T04:43:01.484Z,6.9
2017-04-27T04:43:49.949Z,6.97
2017-04-27T04:44:38.501Z,7
2017-04-27T04:45:27.159Z,6.95
2017-04-27T04:46:15.723Z,6.9
2017-04-27T04:47:04.797Z,6.96
2017-04-27T04:47:53.221Z,6.96
2017-04-27T04:48:41.858Z,7.07
2017-04-27T04:49:30.410Z,7
2017-04-27T04:53:28.332Z,7.03
2017-04-27T04:54:16.767Z,7
2017-04-27T04:55:05.325Z,7.05
2017-04-27T04:55:54.031Z,7.01
2017-04-27T04:56:42.806Z,7.07
2017-04-27T04:57:33.012Z,7.07
2017-04-27T04:58:22.443Z,7.03
2017-04-27T04:59:11.011Z,7.05
2017-04-27T04:59:59.952Z,7.05
2017-04-27T05:00:48.659Z,7.14
2017-04-27T05:01:37.939Z,7.08
2017-04-27T05:02:26.878Z,7.04
2017-04-27T05:03:17.908Z,7.14
2017-04-27T05:04:07.379Z,7.05
2017-04-27T05:19:46.466Z,7.46
2017-04-27T05:20:34.605Z,7.43
2017-04-27T05:21:24.537Z,7.41
2017-04-27T05:22:15.979Z,7.5
2017-04-27T05:23:04.932Z,7.5
2017-04-27T05:23:54.153Z,7.47
2017-04-27T05:24:42.546Z,7.46
2017-04-27T05:30:38.956Z,7.44
2017-04-27T05:31:27.934Z,7.48
2017-04-27T05:32:16.287Z,7.43
2017-04-27T05:33:04.875Z,7.47
2017-04-27T05:33:58.467Z,7.43
2017-04-27T05:34:47.285Z,7.44
2017-04-27T05:35:36.104Z,7.44
2017-04-27T05:36:24.771Z,7.5
2017-04-27T05:37:12.948Z,7.47
2017-04-27T05:38:01.935Z,7.46
2017-04-27T05:38:50.643Z,7.48
2017-04-27T05:39:39.154Z,7.41
2017-04-27T05:40:27.865Z,7.47
2017-04-27T05:41:16.734Z,7.5
2017-04-27T05:42:06.140Z,7.48
2017-04-27T05:46:51.312Z,7.61
2017-04-27T05:47:40.070Z,7.62
2017-04-27T05:48:29.449Z,7.67
2017-04-27T05:49:18.302Z,7.61
2017-04-27T05:50:08.703Z,7.66
2017-04-27T05:50:57.401Z,7.69
2017-04-27T05:51:46.861Z,7.61
2017-04-27T05:52:35.566Z,7.59
2017-04-27T05:53:23.934Z,7.77
2017-04-27T05:54:12.604Z,7.69
2017-04-27T05:55:01.794Z,7.81
2017-04-27T05:55:50.173Z,7.78
2017-04-27T05:56:38.617Z,7.84
2017-04-27T05:57:27.589Z,7.88
2017-04-27T05:58:15.821Z,7.96
2017-04-27T05:59:04.465Z,7.96
2017-04-27T05:59:53.421Z,8.09
2017-04-27T06:00:42.178Z,8.13
2017-04-27T06:01:30.271Z,8.18
2017-04-27T06:02:18.843Z,8.24
2017-04-27T06:03:07.966Z,8.28
2017-04-27T06:03:56.580Z,8.32
2017-04-27T06:04:44.909Z,8.27
2017-04-27T06:05:33.443Z,8.35
2017-04-27T06:06:22.140Z,8.42
2017-04-27T06:07:10.956Z,8.45
2017-04-27T06:08:00.206Z,8.45
2017-04-27T06:08:48.867Z,8.42
2017-04-27T06:09:37.972Z,8.45
2017-04-27T06:10:26.249Z,8.38
2017-04-27T06:11:15.134Z,8.41
2017-04-27T06:12:03.886Z,8.38
2017-04-27T06:12:52.480Z,8.46
2017-04-27T06:13:41.559Z,8.49
2017-04-27T06:14:31.199Z,8.42
2017-04-27T06:15:19.934Z,8.53
2017-04-27T06:16:08.762Z,8.49
2017-04-27T06:16:57.280Z,8.56
2017-04-27T06:21:47.927Z,9.05
2017-04-27T06:22:36.820Z,9.15
2017-04-27T06:23:25.326Z,9.26
2017-04-27T06:24:14.025Z,9.37
2017-04-27T06:25:02.673Z,9.48
2017-04-27T06:25:51.312Z,9.54
2017-04-27T06:26:40.134Z,9.56
2017-04-27T06:27:28.790Z,9.56
2017-04-27T06:28:17.491Z,9.59
2017-04-27T06:29:05.888Z,9.67
2017-04-27T06:29:54.796Z,9.63
2017-04-27T06:30:43.450Z,9.58
2017-04-27T06:31:31.942Z,9.58
2017-04-27T06:35:56.626Z,9.62
2017-04-27T06:36:45.114Z,9.63
2017-04-27T06:37:33.866Z,9.63
2017-04-27T06:38:24.346Z,9.55
2017-04-27T06:39:17.788Z,9.66
2017-04-27T06:40:06.152Z,9.59
2017-04-27T06:40:54.719Z,9.54
2017-04-27T06:41:43.862Z,9.67
2017-04-27T06:42:32.775Z,9.64
2017-04-27T06:43:21.105Z,9.64
2017-04-27T06:44:09.746Z,9.59
2017-04-27T06:44:58.781Z,9.62
2017-04-27T06:45:47.570Z,9.55
2017-04-27T06:46:36.871Z,9.56
2017-04-27T06:47:25.162Z,9.55
2017-04-27T06:48:13.846Z,9.54
2017-04-27T06:49:02.586Z,9.55
2017-04-27T06:49:51.362Z,9.59
2017-04-27T06:50:40.343Z,9.66
2017-04-27T06:51:28.601Z,9.69
2017-04-27T06:55:28.956Z,10
2017-04-27T06:56:18.121Z,10.03
2017-04-27T06:57:07.048Z,10.18
2017-04-27T06:57:56.653Z,10.3
2017-04-27T06:58:45.668Z,10.27
2017-04-27T06:59:33.825Z,10.58
2017-04-27T07:00:23.177Z,10.61
2017-04-27T07:01:13.109Z,10.69
2017-04-27T07:02:02.043Z,10.79
2017-04-27T07:02:51.080Z,10.89
2017-04-27T07:03:40.558Z,11.01
2017-04-27T07:04:29.413Z,11.1
2017-04-27T07:05:21.027Z,11.25
2017-04-27T07:06:10.806Z,11.53
2017-04-27T07:07:00.457Z,11.62
2017-04-27T07:08:55.396Z,12.15
2017-04-27T07:09:45.149Z,12.32
2017-04-27T07:11:41.492Z,12.62
2017-04-27T07:12:30.959Z,12.78
2017-04-27T07:13:20.645Z,12.88
2017-04-27T07:14:08.980Z,12.93
2017-04-27T07:14:59.111Z,12.94
2017-04-27T07:15:48.047Z,12.99
2017-04-27T07:16:36.655Z,12.99
2017-04-27T07:17:25.419Z,13.02
2017-04-27T07:18:14.412Z,12.93
2017-04-27T07:19:02.623Z,12.95
2017-04-27T07:19:51.617Z,12.91
2017-04-27T07:20:40.143Z,13.01
2017-04-27T07:21:28.969Z,13.06
2017-04-27T07:22:19.318Z,13.05
2017-04-27T07:23:07.937Z,13.12
2017-04-27T07:23:56.466Z,13.17
2017-04-27T07:24:46.115Z,13.21
2017-04-27T07:25:35.200Z,13.24
2017-04-27T07:43:58.873Z,18.09
2017-04-27T07:48:17.217Z,19.82
2017-04-27T07:49:06.008Z,20.24
2017-04-27T07:49:55.082Z,20.59
2017-04-27T07:50:43.741Z,20.92
2017-04-27T07:51:32.397Z,21.1
2017-04-27T07:53:54.012Z,20.9
2017-04-27T07:54:43.310Z,21.07
2017-04-27T07:55:31.564Z,21.29
2017-04-27T07:57:56.973Z,22
2017-04-27T07:58:46.373Z,22.18
2017-04-27T07:59:34.494Z,22.12
2017-04-27T08:00:24.685Z,22.06
2017-04-27T08:01:12.576Z,22
2017-04-27T08:02:01.566Z,21.92
2017-04-27T08:02:50.384Z,21.88
2017-04-27T08:03:38.967Z,21.72
2017-04-27T08:04:27.518Z,21.53
2017-04-27T08:05:16.457Z,21.3
2017-04-27T08:06:04.741Z,21.2
2017-04-27T08:06:53.515Z,21.01
2017-04-27T08:07:42.412Z,20.86
2017-04-27T08:08:30.607Z,20.74
2017-04-27T08:09:19.247Z,20.5
2017-04-27T08:32:12.812Z,15.33
2017-04-27T08:33:01.767Z,15.45
2017-04-27T08:33:50.394Z,15.48
2017-04-27T08:34:39.162Z,15.59
2017-04-27T08:35:28.349Z,15.54
2017-04-27T08:36:16.754Z,15.67
2017-04-27T08:37:05.274Z,15.62
2017-04-27T08:37:54.019Z,15.63
2017-04-27T08:38:42.775Z,15.66
2017-04-27T08:39:30.934Z,15.57
2017-04-27T08:40:19.979Z,15.43
2017-04-27T08:41:08.727Z,15.33
2017-04-27T08:41:57.483Z,15.27
2017-04-27T08:42:46.861Z,15.18
2017-04-27T08:43:35.821Z,15
2017-04-27T08:44:25.305Z,14.99
2017-04-27T08:45:13.745Z,14.87
2017-04-27T08:48:45.012Z,15.5
2017-04-27T08:49:37.591Z,15.75
2017-04-27T08:50:34.362Z,16.28
2017-04-27T08:51:25.781Z,16.86
2017-04-27T08:52:14.077Z,17.22
2017-04-27T08:53:03.180Z,17.87
2017-04-27T08:53:55.852Z,18.66
2017-04-27T08:54:47.348Z,19.57
2017-04-27T08:55:41.863Z,20.44
2017-04-27T08:56:32.828Z,21.1
2017-04-27T08:57:23.064Z,21.8
2017-04-27T08:58:12.291Z,22.25
2017-04-27T08:59:00.595Z,22.44
2017-04-27T08:59:52.406Z,22.56
2017-04-27T09:00:42.587Z,22.77
2017-04-27T09:01:33.948Z,22.83
2017-04-27T09:02:22.305Z,23.02
2017-04-27T09:03:12.600Z,23.04
2017-04-27T09:04:01.770Z,23.1
2017-04-27T09:04:49.991Z,23.32
2017-04-27T09:05:38.786Z,23.63
2017-04-27T09:06:29.330Z,23.94
2017-04-27T09:07:19.892Z,24.31
2017-04-27T09:08:09.709Z,24.78
2017-04-27T09:08:58.083Z,25.25
2017-04-27T09:09:48.923Z,25.77
2017-04-27T09:10:41.892Z,26.39
2017-04-27T09:11:31.465Z,26.86
2017-04-27T09:12:23.351Z,27.37
2017-04-27T09:13:14.164Z,27.64
2017-04-27T09:14:05.302Z,27.95
2017-04-27T09:15:59.557Z,28.67
2017-04-27T09:16:50.933Z,28.57
2017-04-27T09:17:39.470Z,28.46
2017-04-27T09:18:29.586Z,28.15
2017-04-27T09:19:18.731Z,27.95
2017-04-27T09:20:08.123Z,27.68
2017-04-27T09:20:57.401Z,27.6
2017-04-27T09:21:46.755Z,27.6
2017-04-27T09:22:35.807Z,27.82
2017-04-27T09:23:24.288Z,28.01
2017-04-27T09:24:16.343Z,28.13
2017-04-27T09:25:05.741Z,28.38
2017-04-27T09:25:55.431Z,28.33
2017-04-27T09:26:44.328Z,28.47
2017-04-27T09:27:35.078Z,28.62
2017-04-27T09:28:26.809Z,29
2017-04-27T09:29:20.601Z,29.47
2017-04-27T09:30:12.912Z,29.9
2017-04-27T09:31:03.888Z,30.18
2017-04-27T09:31:53.013Z,30.38
2017-04-27T09:35:24.811Z,31.11
2017-04-27T09:36:14.910Z,31.18
2017-04-27T09:37:07.229Z,31.13
2017-04-27T09:37:55.903Z,31.08
2017-04-27T09:38:47.185Z,31.05
2017-04-27T09:39:37.607Z,31.15
2017-04-27T09:40:29.196Z,31.22
2017-04-27T09:41:16.821Z,31.37
2017-04-27T09:42:07.286Z,31.52
2017-04-27T09:42:56.000Z,31.48
2017-04-27T09:44:57.824Z,31.66
2017-04-27T09:45:47.578Z,31.82
2017-04-27T09:46:40.526Z,32.01
2017-04-27T09:47:33.778Z,32.15
2017-04-27T09:48:26.443Z,32.51
2017-04-27T09:49:18.492Z,32.94
2017-04-27T09:52:48.756Z,34.11
2017-04-27T09:53:37.029Z,34.46
2017-04-27T09:54:25.807Z,35.05
2017-04-27T09:55:14.425Z,35.52
2017-04-27T09:56:03.512Z,36.11
2017-04-27T09:56:51.849Z,36.62
2017-04-27T09:57:40.418Z,37.11
2017-04-27T09:58:29.271Z,37.57
2017-04-27T10:02:26.104Z,39.04
2017-04-27T10:03:18.962Z,39.19
2017-04-27T10:04:13.903Z,39.3
2017-04-27T10:05:06.761Z,39.23
2017-04-27T10:07:13.674Z,39.2
2017-04-27T10:08:15.032Z,39.52
2017-04-27T10:10:14.008Z,40.26
2017-04-27T10:14:01.032Z,40.49
2017-04-27T10:20:56.561Z,39.68
2017-04-27T11:10:00.510Z,34.71
2017-04-27T11:13:58.881Z,30.36
2017-04-27T11:15:06.137Z,29.28
2017-04-27T11:25:18.090Z,27.07
2017-04-27T11:26:07.028Z,27.16
2017-04-27T11:26:55.985Z,27.25
2017-04-27T11:27:44.920Z,27.15
2017-04-27T11:28:33.392Z,26.97
2017-04-27T11:31:07.276Z,26.18
2017-04-27T11:31:56.076Z,25.83
2017-04-27T11:32:44.744Z,25.56
2017-04-27T11:33:32.938Z,25.34
2017-04-27T11:35:56.127Z,24.85
2017-04-27T11:36:46.103Z,24.65
2017-04-27T11:37:36.870Z,24.41
2017-04-27T11:38:26.707Z,24.1
2017-04-27T11:39:16.586Z,23.86
2017-04-27T11:40:07.258Z,23.71
2017-04-27T11:40:56.547Z,23.25
2017-04-27T11:41:45.058Z,23.01
2017-04-27T11:42:33.930Z,22.58
2017-04-27T11:50:12.625Z,20.33
2017-04-27T11:51:01.487Z,20.29
2017-04-27T11:51:51.645Z,20.29
2017-04-27T11:52:40.586Z,20.39
2017-04-27T11:53:29.536Z,20.48
2017-04-27T11:54:17.843Z,20.64
2017-04-27T11:55:06.674Z,20.88
2017-04-27T11:55:55.443Z,21.04
2017-04-27T11:56:43.742Z,21.35
2017-04-27T11:57:32.762Z,21.66
2017-04-27T11:59:59.126Z,23.16
2017-04-27T12:00:49.386Z,23.74
2017-04-27T12:01:37.304Z,24.19
2017-04-27T12:02:28.484Z,24.84
2017-04-27T12:03:17.284Z,25.22
2017-04-27T12:04:07.080Z,26.06
2017-04-27T12:04:55.896Z,26.86
2017-04-27T12:05:46.793Z,27.79
2017-04-27T12:06:38.022Z,28.62
2017-04-27T12:14:23.389Z,29.5
2017-04-27T12:15:12.855Z,29.4
2017-04-27T12:16:01.958Z,29.5
2017-04-27T12:16:50.594Z,29.83
2017-04-27T12:17:39.596Z,30.21
2017-04-27T12:18:27.868Z,30.54
2017-04-27T12:19:16.641Z,30.63
2017-04-27T12:20:05.263Z,30.52
2017-04-27T12:20:53.738Z,30.01
2017-04-27T12:21:42.378Z,29.61
2017-04-27T12:22:31.359Z,29.12
2017-04-27T12:23:20.162Z,28.47
2017-04-27T12:30:00.674Z,24.78
2017-04-27T12:30:51.223Z,24.5
2017-04-27T12:31:40.325Z,24.25
2017-04-27T12:32:30.308Z,24.09
2017-04-27T12:34:51.745Z,23.69
2017-04-27T12:35:43.203Z,23.48
2017-04-27T12:36:36.799Z,23.34
2017-04-27T12:37:36.289Z,23.16
2017-04-27T12:38:28.900Z,22.81
2017-04-27T12:39:17.381Z,22.58
2017-04-27T12:40:07.326Z,22.44
2017-04-27T12:40:56.834Z,22.21
2017-04-27T12:46:29.595Z,20.88
2017-04-27T12:47:18.704Z,20.67
2017-04-27T12:48:10.352Z,20.42
2017-04-27T12:48:59.341Z,20.27
2017-04-27T12:49:47.939Z,20.18
2017-04-27T12:50:36.806Z,20.15
2017-04-27T12:51:26.149Z,19.99
2017-04-27T12:52:15.048Z,19.84
2017-04-27T12:53:03.643Z,19.66
2017-04-27T12:53:54.194Z,19.56
2017-04-27T12:54:43.082Z,19.42
2017-04-27T12:55:32.490Z,19.35
2017-04-27T12:56:21.172Z,19.45
2017-04-27T12:57:10.268Z,19.44
2017-04-27T12:57:58.348Z,19.56
2017-04-27T12:58:47.372Z,19.57
2017-04-27T12:59:36.106Z,19.6
2017-04-27T13:00:24.733Z,19.82
2017-04-27T13:01:13.522Z,19.82
2017-04-27T13:02:02.499Z,20
2017-04-27T13:02:50.368Z,20.03
2017-04-27T13:03:39.613Z,20.12
2017-04-27T13:04:28.695Z,20.15
2017-04-27T13:05:17.216Z,20.34
2017-04-27T13:06:05.700Z,20.4
2017-04-27T13:06:54.269Z,20.59
2017-04-27T13:07:43.274Z,20.75
2017-04-27T13:08:32.406Z,21.01
2017-04-27T13:10:54.736Z,21.54
2017-04-27T13:11:43.057Z,21.56
2017-04-27T13:12:33.315Z,21.68
2017-04-27T13:14:55.845Z,21.91
2017-04-27T13:15:45.055Z,21.99
2017-04-27T13:16:34.207Z,22.19
2017-04-27T13:17:23.134Z,22.3
2017-04-27T13:19:30.418Z,22.58
2017-04-27T13:20:19.767Z,22.59
2017-04-27T13:21:08.376Z,22.44
2017-04-27T13:21:57.327Z,22.47
2017-04-27T13:22:45.992Z,22.41
2017-04-27T13:23:35.334Z,22.34
2017-04-27T13:24:23.689Z,22.26
2017-04-27T13:25:12.291Z,22.37
2017-04-27T13:26:00.975Z,22.36
2017-04-27T13:26:50.448Z,22.22
2017-04-27T13:27:38.643Z,22.22
2017-04-27T13:28:27.309Z,22.08
2017-04-27T13:29:15.779Z,21.92
2017-04-27T13:30:04.757Z,21.75
2017-04-27T13:30:53.305Z,21.47
2017-04-27T13:31:42.098Z,21.28
2017-04-27T13:35:40.383Z,21.26
2017-04-27T13:36:37.410Z,21.37
2017-04-27T13:37:26.102Z,21.48
2017-04-27T13:38:16.778Z,21.38
2017-04-27T13:39:05.260Z,21.23
2017-04-27T13:39:54.001Z,21.07
2017-04-27T13:40:45.561Z,20.89
2017-04-27T13:41:34.139Z,20.7
2017-04-27T13:42:22.465Z,20.48
2017-04-27T13:43:11.464Z,20.19
2017-04-27T13:44:07.408Z,20.02
2017-04-27T13:44:57.750Z,20.1
2017-04-27T13:45:47.501Z,20.1
2017-04-27T13:46:37.386Z,20.15
2017-04-27T13:47:26.246Z,20.32
2017-04-27T13:48:15.743Z,20.53
2017-04-27T13:49:05.885Z,20.55
2017-04-27T13:49:54.185Z,20.53
2017-04-27T13:50:42.912Z,20.63
2017-04-27T13:51:32.306Z,20.68
2017-04-27T13:52:21.688Z,20.63
2017-04-27T13:53:10.961Z,20.74
2017-04-27T13:54:05.136Z,20.73
2017-04-27T13:54:51.687Z,20.63
2017-04-27T13:55:41.665Z,20.59
2017-04-27T13:56:30.655Z,20.49
2017-04-27T13:57:19.117Z,20.32
2017-04-27T13:58:07.906Z,20.18
2017-04-27T13:58:56.255Z,20.1
2017-04-27T13:59:48.784Z,19.97
2017-04-27T14:00:37.506Z,19.85
2017-04-27T14:01:25.800Z,19.64
2017-04-27T14:02:14.608Z,19.47
2017-04-27T14:03:03.194Z,19.41
2017-04-27T14:03:51.985Z,19.35
2017-04-27T14:04:41.006Z,19.32
2017-04-27T14:05:29.218Z,19.37
2017-04-27T14:09:28.003Z,19.38
2017-04-27T14:10:17.058Z,19.38
2017-04-27T14:11:05.562Z,19.24
2017-04-27T14:11:54.049Z,19.09
2017-04-27T14:12:43.555Z,18.85
2017-04-27T14:13:32.405Z,18.53
2017-04-27T14:14:20.640Z,18.26
2017-04-27T14:15:09.431Z,17.93
2017-04-27T14:15:57.982Z,17.8
2017-04-27T14:16:46.880Z,17.69
2017-04-27T14:17:35.059Z,17.5
2017-04-27T14:18:23.991Z,17.52
2017-04-27T14:19:29.485Z,17.49
2017-04-27T14:29:31.609Z,18.3
2017-04-27T14:30:20.322Z,18.33
2017-04-27T14:34:01.894Z,18.39
2017-04-27T14:34:50.579Z,18.51
2017-04-27T14:35:39.713Z,18.51
2017-04-27T14:36:28.007Z,18.57
2017-04-27T14:37:16.638Z,18.61
2017-04-27T14:38:06.310Z,18.74
2017-04-27T14:48:48.745Z,19.27
2017-04-27T14:49:36.734Z,19.19
2017-04-27T14:51:57.810Z,19.2
2017-04-27T14:52:46.392Z,19.11
2017-04-27T14:53:35.712Z,19.09
2017-04-27T14:54:24.553Z,19.04
2017-04-27T14:55:13.793Z,19
2017-04-27T14:56:01.436Z,19.04
2017-04-27T14:56:50.580Z,19
2017-04-27T14:57:39.886Z,18.88
2017-04-27T14:58:28.910Z,18.79
2017-04-27T14:59:17.393Z,18.71
2017-04-27T15:00:08.297Z,18.7
2017-04-27T15:00:56.858Z,18.6
2017-04-27T15:01:45.710Z,18.52
2017-04-27T15:02:34.621Z,18.45
2017-04-27T15:03:22.988Z,18.41
2017-04-27T15:04:11.526Z,18.33
2017-04-27T15:05:00.218Z,18.3
2017-04-27T15:05:47.375Z,18.19
2017-04-27T15:06:37.119Z,18.11
2017-04-27T15:07:29.266Z,18.08
2017-04-27T15:08:11.156Z,18.09
2017-04-27T15:08:51.739Z,17.95
2017-04-27T15:10:49.913Z,17.95
2017-04-27T15:11:38.333Z,18.05
2017-04-27T15:12:26.642Z,17.91
2017-04-27T15:13:15.647Z,17.88
2017-04-27T15:16:52.175Z,17.87
2017-04-27T15:21:27.882Z,17.75
2017-04-27T15:22:16.555Z,17.73
2017-04-27T15:23:05.983Z,17.73
2017-04-27T15:23:54.984Z,17.72
2017-04-27T15:24:43.889Z,17.71
2017-04-27T15:25:31.949Z,17.69
2017-04-27T15:26:20.909Z,17.71
2017-04-27T15:27:10.453Z,17.76
2017-04-27T15:27:58.700Z,17.73
2017-04-27T15:28:47.882Z,17.66
2017-04-27T15:29:37.091Z,17.69
2017-04-27T15:30:25.495Z,17.69
2017-04-27T15:31:13.913Z,17.57
2017-04-27T15:32:02.703Z,17.54
2017-04-27T15:32:51.516Z,17.56
2017-04-27T15:33:40.505Z,17.53
2017-04-27T15:34:29.257Z,17.46
2017-04-27T15:35:17.575Z,17.39
2017-04-27T15:36:06.343Z,17.37
2017-04-27T15:36:55.923Z,17.39
2017-04-27T15:37:44.781Z,17.37
2017-04-27T15:38:33.389Z,17.38
2017-04-27T15:39:21.495Z,17.41
2017-04-27T15:40:10.214Z,17.42
2017-04-27T15:40:58.880Z,17.49
2017-04-27T15:41:47.880Z,17.52
2017-04-27T15:42:36.501Z,17.59
2017-04-27T15:43:25.035Z,17.52
2017-04-27T15:44:13.638Z,17.56
2017-04-27T15:45:02.495Z,17.54
2017-04-27T15:45:51.290Z,17.5
2017-04-27T15:46:39.577Z,17.47
2017-04-27T15:47:28.627Z,17.46
2017-04-27T15:48:17.130Z,17.44
2017-04-27T15:49:06.034Z,17.38
2017-04-27T15:49:54.331Z,17.28
2017-04-27T15:50:43.428Z,17.22
2017-04-27T15:51:31.950Z,17.22
2017-04-27T15:52:20.515Z,17.23
2017-04-27T15:53:08.900Z,17.2
2017-04-27T15:53:57.727Z,17.09
2017-04-27T15:54:46.058Z,17.1
2017-04-27T15:55:35.323Z,17.14
2017-04-27T15:56:24.595Z,16.87
2017-04-27T15:57:13.992Z,16.89
2017-04-27T15:58:02.060Z,16.74
2017-04-27T15:58:51.487Z,16.69
2017-04-27T15:59:31.173Z,16.64
2017-04-27T16:00:12.960Z,16.5
2017-04-27T16:00:55.027Z,16.41
2017-04-27T16:01:35.623Z,16.41
2017-04-27T16:02:16.153Z,16.31
2017-04-27T16:02:56.981Z,16.39
2017-04-27T16:03:41.302Z,16.28
2017-04-27T16:04:22.384Z,16.22
2017-04-27T16:05:05.583Z,16.25
2017-04-27T16:05:46.336Z,16.21
2017-04-27T16:06:27.616Z,16.22
2017-04-27T16:07:08.126Z,16.25
2017-04-27T16:07:50.024Z,16.21
2017-04-27T16:08:39.046Z,16.24
2017-04-27T16:11:04.032Z,16.09
2017-04-27T16:11:52.902Z,16.08
2017-04-27T16:12:41.119Z,16.12
2017-04-27T16:13:31.596Z,16.13
2017-04-27T16:14:20.205Z,16.1
2017-04-27T16:15:09.038Z,16.02
2017-04-27T16:15:58.164Z,16.02
2017-04-27T16:16:46.700Z,15.92
2017-04-27T16:20:24.628Z,15.55
2017-04-27T16:21:13.796Z,15.67
2017-04-27T16:23:36.409Z,15.44
2017-04-27T16:24:30.814Z,15.47
2017-04-27T16:25:24.346Z,15.47
2017-04-27T16:26:13.279Z,15.44
2017-04-27T16:30:12.065Z,15.36
2017-04-27T16:31:06.077Z,15.3
2017-04-27T16:32:09.578Z,15.35
2017-04-27T16:33:08.204Z,15.33
2017-04-27T16:35:38.355Z,15.32
2017-04-27T16:36:27.366Z,15.18
2017-04-27T16:37:15.737Z,15.23
2017-04-27T16:38:07.139Z,15.19
2017-04-27T16:38:55.719Z,15.11
2017-04-27T16:39:48.896Z,15.04
2017-04-27T16:40:37.681Z,15.02
2017-04-27T16:41:29.648Z,15.1
2017-04-27T16:42:17.649Z,15.07
2017-04-27T16:43:05.747Z,15.08
2017-04-27T16:43:54.406Z,15.04
2017-04-27T16:44:43.840Z,15.05
2017-04-27T16:45:32.622Z,15
2017-04-27T16:49:02.855Z,14.85
2017-04-27T17:02:58.239Z,14.78
2017-04-27T17:08:39.516Z,14.55
2017-04-27T17:09:28.433Z,14.52
2017-04-27T17:10:16.788Z,14.52
2017-04-27T17:13:51.104Z,14.34
2017-04-27T17:14:39.590Z,14.34
2017-04-27T17:15:28.251Z,14.34
2017-04-27T17:16:17.045Z,14.26
2017-04-27T17:17:05.669Z,14.25
2017-04-27T17:18:58.019Z,14.23
2017-04-27T17:22:09.172Z,14.16
2017-04-27T17:22:57.774Z,14.08
2017-04-27T17:23:47.305Z,14.13
2017-04-27T17:27:13.956Z,14
2017-04-27T17:28:02.319Z,13.94
2017-04-27T17:28:51.232Z,13.89
2017-04-27T17:29:40.081Z,13.82
2017-04-27T17:30:31.445Z,13.75
2017-04-27T17:31:20.197Z,13.7
2017-04-27T17:32:08.903Z,13.71
2017-04-27T17:32:58.458Z,13.68
2017-04-27T17:33:46.350Z,13.64
2017-04-27T17:34:34.812Z,13.58
2017-04-27T17:36:28.798Z,13.57
2017-04-27T17:37:18.149Z,13.49
2017-04-27T17:47:15.120Z,13.27
2017-04-27T17:48:03.574Z,13.3
2017-04-27T17:56:01.237Z,12.72
2017-04-27T18:01:25.796Z,12.53
2017-04-27T18:03:13.576Z,12.54
2017-04-27T18:04:02.973Z,12.48
2017-04-27T18:05:06.722Z,12.4
2017-04-27T18:05:55.213Z,12.35
2017-04-27T18:06:43.769Z,12.36
2017-04-27T18:07:32.352Z,12.21
2017-04-27T18:08:26.008Z,12.29
2017-04-27T18:09:16.682Z,12.23
2017-04-27T18:10:06.122Z,12.12
2017-04-27T18:10:54.569Z,12.11
2017-04-27T18:11:43.678Z,12
2017-04-27T18:12:32.288Z,11.93
2017-04-27T18:13:21.691Z,11.93
2017-04-27T18:14:10.166Z,11.88
2017-04-27T18:15:00.788Z,11.81
2017-04-27T18:15:49.741Z,11.78
2017-04-27T18:19:06.784Z,11.68
2017-04-27T18:19:56.984Z,11.78
2017-04-27T18:20:45.665Z,11.77
2017-04-27T18:21:35.263Z,11.71
2017-04-27T18:22:27.102Z,11.71
2017-04-27T18:23:34.663Z,11.73
2017-04-27T18:24:24.593Z,11.78
2017-04-27T18:25:13.037Z,11.77
2017-04-27T18:26:02.213Z,11.7
2017-04-27T18:26:51.092Z,11.71
2017-04-27T18:27:40.071Z,11.6
2017-04-27T18:28:30.582Z,11.68
2017-04-27T18:29:19.741Z,11.59
2017-04-27T18:30:09.291Z,11.58
2017-04-27T18:31:01.079Z,11.45
2017-04-27T18:31:49.864Z,11.53
2017-04-27T18:32:39.034Z,11.41
2017-04-27T18:33:30.059Z,11.48
2017-04-27T18:34:19.182Z,11.37
2017-04-27T18:35:07.609Z,11.27
2017-04-27T18:35:56.620Z,11.25
2017-04-27T18:36:45.186Z,11.16
2017-04-27T18:37:40.545Z,11.1
2017-04-27T18:38:29.302Z,11.05
2017-04-27T18:39:23.416Z,10.94
2017-04-27T18:54:18.039Z,9.97
2017-04-27T18:55:07.480Z,9.9
2017-04-27T18:55:56.368Z,9.87
2017-04-27T18:56:47.928Z,9.81
2017-04-27T18:57:37.080Z,9.8
2017-04-27T18:58:37.100Z,9.69
2017-04-27T18:59:28.171Z,9.72
2017-04-27T19:00:19.922Z,9.73
2017-04-27T19:01:09.838Z,9.76
2017-04-27T19:01:59.079Z,9.73
2017-04-27T19:03:04.446Z,9.64
2017-04-27T19:03:55.040Z,9.62
2017-04-27T19:04:44.027Z,9.63
2017-04-27T19:05:34.618Z,9.63
2017-04-27T19:06:25.531Z,9.56